Time;durP1;ratioP1;P1;durP2;ratioP2;P2;SDS_P1;SDS_P2;PMS_P1;PMS_P2;Temp;Humidity;BMP_temperature;BMP_pressure;BME280_temperature;BME280_humidity;BME280_pressure;Samples;Min_cycle;Max_cycle;Signal;HPM_P1;HPM_P2
2022/04/17 00:00:33;;;;;;;5.85;4.20;;;;;;;2.27;73.88;93970.09;2082175;28;20032;-83
2022/04/17 00:01:34;;;;;;;5.22;4.10;;;;;;;2.38;75.38;93973.00;2081432;28;20139;-83
2022/04/17 00:02:35;;;;;;;5.07;4.20;;;;;;;2.22;75.55;93961.69;2081787;28;20112;-84
2022/04/17 00:03:36;;;;;;;6.25;4.32;;;;;;;2.37;75.00;93963.56;2090010;28;20013;-84
2022/04/17 00:04:37;;;;;;;5.32;4.70;;;;;;;2.22;73.83;93959.81;2090237;28;20028;-83
2022/04/17 00:05:38;;;;;;;5.60;4.63;;;;;;;1.99;73.30;93957.03;2081883;28;20493;-83
2022/04/17 00:06:39;;;;;;;5.22;4.30;;;;;;;2.19;74.74;93951.81;2088916;28;20068;-83
2022/04/17 00:07:40;;;;;;;6.10;4.28;;;;;;;2.29;73.50;93953.19;2090249;28;20060;-83
2022/04/17 00:08:41;;;;;;;6.07;4.15;;;;;;;2.21;73.82;93953.03;2098357;28;20025;-84
2022/04/17 00:09:42;;;;;;;5.75;4.35;;;;;;;2.15;73.54;93951.75;2090265;28;20025;-83
2022/04/17 00:10:47;;;;;;;5.53;4.28;;;;;;;2.03;77.51;93956.34;2090268;28;20022;-84
2022/04/17 00:11:48;;;;;;;5.28;4.78;;;;;;;2.03;76.91;93954.47;2090575;28;20025;-83
2022/04/17 00:12:49;;;;;;;4.47;4.07;;;;;;;2.14;74.03;93955.47;2081947;28;20053;-83
2022/04/17 00:13:50;;;;;;;4.80;4.40;;;;;;;2.25;77.67;93945.97;2088850;28;20121;-84
2022/04/17 00:14:52;;;;;;;5.82;4.88;;;;;;;2.24;76.06;93947.06;2090140;28;20035;-82
2022/04/17 00:15:53;;;;;;;5.75;4.20;;;;;;;2.29;76.93;93953.97;2082180;28;20700;-83
2022/04/17 00:16:56;;;;;;;5.07;4.57;;;;;;;2.12;79.24;93946.41;2081767;28;20022;-83
2022/04/17 00:17:57;;;;;;;4.78;4.28;;;;;;;2.06;78.31;93939.84;2082582;28;20025;-83
2022/04/17 00:18:58;;;;;;;6.40;4.35;;;;;;;2.16;74.98;93941.97;2089995;28;20028;-82
2022/04/17 00:19:59;;;;;;;6.00;4.70;;;;;;;2.10;75.64;93938.03;2098280;28;20028;-82
2022/04/17 00:21:01;;;;;;;5.95;4.50;;;;;;;1.95;76.83;93935.09;2095226;28;20093;-83
2022/04/17 00:22:02;;;;;;;5.95;4.72;;;;;;;1.95;79.57;93932.44;2081577;28;20029;-83
2022/04/17 00:23:03;;;;;;;6.00;4.75;;;;;;;2.11;79.02;93931.66;2089513;28;20024;-83
2022/04/17 00:24:04;;;;;;;5.60;4.90;;;;;;;2.05;76.80;93930.41;2090843;28;20052;-83
2022/04/17 00:25:07;;;;;;;9.07;4.97;;;;;;;2.00;77.21;93926.16;2081200;28;20534;-83
2022/04/17 00:26:08;;;;;;;5.78;4.60;;;;;;;1.97;80.26;93927.59;2080817;28;20390;-83
2022/04/17 00:27:10;;;;;;;5.00;4.47;;;;;;;1.89;79.40;93922.47;2098296;28;20452;-83
2022/04/17 00:28:23;;;;;;;6.72;4.50;;;;;;;1.96;77.50;93920.78;2090002;28;20049;-83
2022/04/17 00:29:24;;;;;;;7.78;4.90;;;;;;;2.11;76.92;93923.75;2091642;28;20482;-83
2022/04/17 00:30:25;;;;;;;5.55;4.97;;;;;;;1.92;79.37;93927.84;2089954;28;20029;-83
2022/04/17 00:31:25;;;;;;;6.93;4.32;;;;;;;1.86;76.77;93926.59;2098208;28;20024;-83
2022/04/17 00:32:27;;;;;;;5.22;4.72;;;;;;;1.84;82.46;93918.22;2090012;28;20025;-83
2022/04/17 00:33:28;;;;;;;7.72;4.28;;;;;;;1.88;79.09;93929.63;2098003;28;20027;-83
2022/04/17 00:34:31;;;;;;;7.75;4.55;;;;;;;1.81;78.94;93918.94;2089859;28;20024;-83
2022/04/17 00:35:34;;;;;;;7.38;4.78;;;;;;;1.89;76.68;93920.63;2082517;28;20032;-83
2022/04/17 00:36:34;;;;;;;5.03;4.55;;;;;;;1.72;78.83;93916.47;2090159;28;20016;-83
2022/04/17 00:37:36;;;;;;;7.93;4.45;;;;;;;1.62;78.81;93916.19;2089374;28;20032;-82
2022/04/17 00:38:37;;;;;;;5.30;4.57;;;;;;;1.58;80.88;93923.22;2081651;28;20032;-83
2022/04/17 00:39:40;;;;;;;5.88;4.53;;;;;;;1.40;80.82;93918.28;2090024;28;20470;-83
2022/04/17 00:40:41;;;;;;;6.43;4.97;;;;;;;1.36;82.51;93916.66;2106568;28;20036;-82
2022/04/17 00:41:42;;;;;;;5.07;4.57;;;;;;;1.48;80.52;93914.72;2098167;28;20450;-83
2022/04/17 00:42:44;;;;;;;5.10;4.60;;;;;;;1.56;79.56;93914.91;2098159;28;20031;-84
2022/04/17 00:43:48;;;;;;;5.53;4.57;;;;;;;1.46;79.78;93916.94;2089978;28;20028;-82
2022/04/17 00:44:49;;;;;;;8.23;4.47;;;;;;;1.45;82.36;93919.94;2082555;28;20095;-83
2022/04/17 00:45:51;;;;;;;5.03;4.45;;;;;;;1.37;82.33;93918.97;2081728;28;20067;-83
2022/04/17 00:46:52;;;;;;;5.60;4.57;;;;;;;1.47;82.79;93923.75;2090069;28;20028;-83
2022/04/17 00:47:53;;;;;;;8.27;5.22;;;;;;;1.49;81.31;93926.03;2089888;28;20025;-83
2022/04/17 00:48:54;;;;;;;6.82;5.38;;;;;;;1.54;80.98;93925.81;2081625;28;20052;-83
2022/04/17 00:49:55;;;;;;;6.07;4.70;;;;;;;1.53;79.86;93918.97;2080889;28;20036;-83
2022/04/17 00:50:57;;;;;;;6.00;4.78;;;;;;;1.43;81.03;93922.88;2081584;28;20033;-83
2022/04/17 00:51:58;;;;;;;4.88;4.38;;;;;;;1.32;79.97;93916.59;2081518;28;20017;-83
2022/04/17 00:52:59;;;;;;;4.88;4.35;;;;;;;1.33;80.14;93923.38;2080877;28;20048;-83
2022/04/17 00:54:03;;;;;;;5.38;4.30;;;;;;;1.35;80.37;93913.25;2081593;28;20031;-84
2022/04/17 00:55:05;;;;;;;6.55;4.50;;;;;;;1.33;81.85;93917.34;2090130;28;20052;-84
2022/04/17 00:56:06;;;;;;;5.57;5.00;;;;;;;1.40;83.71;93913.00;2082516;28;20028;-83
2022/04/17 00:57:08;;;;;;;6.47;4.80;;;;;;;1.31;84.53;93919.53;2089827;28;20021;-83
2022/04/17 00:58:09;;;;;;;5.22;4.70;;;;;;;1.24;84.14;93917.50;2089728;28;20025;-84
2022/04/17 00:59:10;;;;;;;7.43;5.10;;;;;;;1.49;80.25;93916.28;2081466;28;20064;-84
2022/04/17 01:00:12;;;;;;;6.15;4.50;;;;;;;1.35;81.87;93918.53;2098066;28;20142;-83
2022/04/17 01:01:13;;;;;;;8.00;5.15;;;;;;;1.12;85.63;93920.94;2089399;28;20025;-84
2022/04/17 01:02:14;;;;;;;7.82;4.95;;;;;;;1.14;85.60;93915.34;2080799;28;20052;-83
2022/04/17 01:03:17;;;;;;;6.57;5.15;;;;;;;1.07;86.41;93912.53;2081527;28;20017;-84
2022/04/17 01:04:18;;;;;;;5.45;4.90;;;;;;;1.17;85.05;93907.53;2081507;28;20029;-83
2022/04/17 01:05:19;;;;;;;7.22;4.82;;;;;;;1.10;83.06;93909.19;2081416;28;20044;-84
2022/04/17 01:06:20;;;;;;;5.15;4.72;;;;;;;1.10;86.82;93904.72;2097850;28;20035;-83
2022/04/17 01:07:23;;;;;;;5.75;5.00;;;;;;;1.12;83.99;93905.16;2089768;28;20445;-83
2022/04/17 01:08:24;;;;;;;5.65;4.88;;;;;;;1.19;86.76;93904.59;2089967;28;20032;-83
2022/04/17 01:09:35;;;;;;;5.55;5.05;;;;;;;1.11;85.60;93910.75;2081546;28;20052;-84
2022/04/17 01:10:37;;;;;;;6.57;5.13;;;;;;;1.29;84.10;93904.09;2092556;28;20017;-83
2022/04/17 01:11:39;;;;;;;6.20;5.03;;;;;;;1.30;85.08;93902.97;2097707;28;20537;-83
2022/04/17 01:12:40;;;;;;;9.05;5.43;;;;;;;1.38;86.86;93904.69;2081253;28;20046;-83
2022/04/17 01:13:42;;;;;;;6.10;5.15;;;;;;;1.27;84.58;93906.28;2080614;28;20053;-83
2022/04/17 01:14:44;;;;;;;7.03;5.13;;;;;;;1.24;85.72;93914.88;2081581;28;20025;-83
2022/04/17 01:15:45;;;;;;;6.20;4.85;;;;;;;1.20;86.94;93916.63;2098130;28;20028;-84
2022/04/17 01:16:47;;;;;;;6.40;4.85;;;;;;;1.08;84.23;93912.19;2097891;28;20027;-82
2022/04/17 01:17:48;;;;;;;6.95;5.50;;;;;;;0.96;84.12;93914.84;2097593;28;20036;-82
2022/04/17 01:19:03;;;;;;;5.35;4.85;;;;;;;0.91;85.98;93902.69;2089556;28;20020;-84
2022/04/17 01:20:06;;;;;;;5.28;4.63;;;;;;;0.80;88.68;93901.66;2083253;28;20163;-83
2022/04/17 01:21:08;;;;;;;6.05;5.10;;;;;;;0.80;89.63;93901.66;2081825;28;20498;-83
2022/04/17 01:22:11;;;;;;;6.43;4.70;;;;;;;0.70;89.25;93902.09;2089632;28;20024;-83
2022/04/17 01:27:11;;;;;;;5.13;4.63;;;;;;;0.66;87.92;93907.28;2091888;28;19919;-83
2022/04/17 01:28:12;;;;;;;5.80;4.63;;;;;;;0.66;89.29;93906.50;2089520;28;20033;-82
2022/04/17 01:29:15;;;;;;;6.18;5.10;;;;;;;0.54;88.50;93898.66;2089477;28;20035;-83
2022/04/17 01:30:16;;;;;;;8.82;5.32;;;;;;;0.52;89.27;93896.34;2081648;28;20048;-83
2022/04/17 01:31:17;;;;;;;5.57;4.65;;;;;;;0.46;90.07;93901.06;2081394;28;20025;-84
2022/04/17 01:32:18;;;;;;;7.10;4.72;;;;;;;0.46;89.13;93898.44;2089499;28;20579;-83
2022/04/17 01:33:20;;;;;;;5.72;5.13;;;;;;;0.40;89.66;93894.53;2097556;28;20016;-83
2022/04/17 01:34:22;;;;;;;6.43;4.65;;;;;;;0.36;90.58;93898.91;2081390;28;20496;-83
2022/04/17 01:35:23;;;;;;;5.60;4.93;;;;;;;0.24;90.21;93899.69;2081618;28;20505;-83
2022/04/17 01:36:24;;;;;;;6.20;5.60;;;;;;;0.28;90.51;93904.28;2089430;28;20059;-83
2022/04/17 01:37:25;;;;;;;5.47;5.07;;;;;;;0.19;90.07;93899.91;2080860;28;20140;-83
2022/04/17 01:38:26;;;;;;;5.97;5.10;;;;;;;0.19;90.42;93904.41;2081125;28;20387;-83
2022/04/17 01:39:28;;;;;;;4.93;4.50;;;;;;;0.18;91.68;93895.75;2089469;28;20653;-83
2022/04/17 01:40:29;;;;;;;6.78;5.25;;;;;;;0.22;92.01;93899.28;2089519;28;20028;-83
2022/04/17 01:41:30;;;;;;;6.72;4.88;;;;;;;0.12;92.62;93893.69;2089443;28;20670;-82
2022/04/17 01:42:30;;;;;;;6.38;4.93;;;;;;;0.15;92.21;93893.78;2081086;28;20077;-83
2022/04/17 01:43:31;;;;;;;5.68;5.18;;;;;;;0.14;93.14;93892.25;2089416;28;20021;-83
2022/04/17 01:44:32;;;;;;;5.47;4.97;;;;;;;-0.04;93.47;93896.97;2089263;28;20021;-83
2022/04/17 01:45:34;;;;;;;5.40;4.90;;;;;;;0.01;93.22;93896.00;2081105;28;20632;-84
2022/04/17 01:46:35;;;;;;;5.53;5.00;;;;;;;-0.05;93.64;93895.44;2073241;28;20029;-84
2022/04/17 01:47:36;;;;;;;8.05;5.30;;;;;;;-0.02;93.89;93894.03;2073185;28;20044;-84
2022/04/17 01:48:37;;;;;;;5.72;5.13;;;;;;;-0.12;93.65;93894.47;2081352;28;20025;-83
2022/04/17 01:49:38;;;;;;;6.13;5.47;;;;;;;-0.06;93.51;93888.66;2080613;28;20055;-83
2022/04/17 01:50:45;;;;;;;5.97;4.57;;;;;;;-0.18;95.95;93890.50;2072753;28;20095;-83
2022/04/17 01:51:48;;;;;;;5.72;5.13;;;;;;;-0.08;95.09;93885.59;2082892;28;20800;-83
2022/04/17 01:52:49;;;;;;;6.53;5.93;;;;;;;-0.24;94.62;93883.94;2081488;28;20034;-83
2022/04/17 01:53:50;;;;;;;7.70;5.35;;;;;;;-0.16;95.51;93889.09;2072831;28;20022;-84
2022/04/17 01:54:51;;;;;;;6.15;5.28;;;;;;;-0.19;94.77;93878.47;2081220;28;20509;-83
2022/04/17 01:55:52;;;;;;;6.95;5.80;;;;;;;-0.10;93.94;93881.75;2081034;28;20040;-83
2022/04/17 01:56:55;;;;;;;5.95;5.15;;;;;;;-0.10;94.26;93881.75;2080398;28;20021;-83
2022/04/17 01:57:57;;;;;;;6.47;5.28;;;;;;;-0.08;94.99;93882.97;2090190;28;20386;-83
2022/04/17 01:58:58;;;;;;;5.50;5.00;;;;;;;-0.23;95.21;93883.63;2089533;28;20021;-83
2022/04/17 01:59:59;;;;;;;5.63;5.10;;;;;;;-0.27;96.02;93878.25;2081065;28;20048;-83
2022/04/17 02:01:00;;;;;;;7.13;5.20;;;;;;;-0.29;95.51;93882.31;2086789;28;20029;-83
2022/04/17 02:02:01;;;;;;;5.82;5.22;;;;;;;-0.28;96.11;93874.09;2088494;28;20029;-83
2022/04/17 02:03:02;;;;;;;5.90;5.30;;;;;;;-0.27;96.07;93880.09;2081065;28;20028;-83
2022/04/17 02:04:04;;;;;;;7.28;5.40;;;;;;;-0.31;96.40;93882.66;2088928;28;20016;-83
2022/04/17 02:05:06;;;;;;;7.07;5.45;;;;;;;-0.21;96.01;93878.81;2081624;28;20030;-83
2022/04/17 02:06:07;;;;;;;5.20;4.70;;;;;;;-0.30;97.28;93871.03;2080957;28;20083;-83
2022/04/17 02:07:08;;;;;;;5.80;5.20;;;;;;;-0.29;96.70;93871.81;2081338;28;20029;-83
2022/04/17 02:08:09;;;;;;;6.00;4.93;;;;;;;-0.26;96.67;93866.66;2081036;28;20167;-83
2022/04/17 02:09:12;;;;;;;6.20;5.20;;;;;;;-0.35;97.86;93876.50;2073257;28;20029;-83
2022/04/17 02:10:19;;;;;;;5.95;5.35;;;;;;;-0.41;96.95;93864.66;2073554;28;20028;-83
2022/04/17 02:12:42;;;;;;;6.75;5.22;;;;;;;-0.36;97.10;93861.06;2139714;27;20194;-82
2022/04/17 02:13:43;;;;;;;6.10;5.50;;;;;;;-0.41;97.00;93863.91;2129506;27;20071;-82
2022/04/17 02:14:44;;;;;;;6.13;5.53;;;;;;;-0.45;97.64;93860.41;2113226;28;20054;-84
2022/04/17 02:15:45;;;;;;;6.15;5.47;;;;;;;-0.43;98.11;93858.22;2113386;28;20024;-82
2022/04/17 02:16:46;;;;;;;7.13;5.50;;;;;;;-0.38;98.27;93861.41;2113184;28;20027;-82
2022/04/17 02:17:47;;;;;;;6.15;5.32;;;;;;;-0.43;97.86;93858.22;2113403;27;20016;-82
2022/04/17 02:18:49;;;;;;;6.45;5.85;;;;;;;-0.47;98.44;93860.75;2121619;28;20053;-82
2022/04/17 02:19:51;;;;;;;6.10;5.50;;;;;;;-0.43;98.25;93859.00;2105229;28;20032;-84
2022/04/17 02:20:53;;;;;;;6.50;5.50;;;;;;;-0.43;98.53;93866.88;2105349;28;20047;-84
2022/04/17 02:21:54;;;;;;;7.63;5.93;;;;;;;-0.53;99.26;93859.41;2113600;27;20027;-82
2022/04/17 02:22:55;;;;;;;8.30;6.18;;;;;;;-0.51;98.78;93870.38;2113257;28;20061;-82
2022/04/17 02:23:56;;;;;;;6.30;5.18;;;;;;;-0.56;98.76;93860.06;2104680;28;20028;-84
2022/04/17 02:24:57;;;;;;;8.25;5.50;;;;;;;-0.55;99.17;93858.97;2121801;27;20027;-81
2022/04/17 02:25:58;;;;;;;6.43;4.85;;;;;;;-0.52;98.68;93866.97;2120535;28;20121;-81
2022/04/17 02:26:59;;;;;;;6.00;5.40;;;;;;;-0.50;98.39;93858.75;2113136;28;20027;-81
2022/04/17 02:28:00;;;;;;;6.88;6.20;;;;;;;-0.55;99.15;93862.38;2113263;28;20114;-82
2022/04/17 02:29:01;;;;;;;6.25;5.13;;;;;;;-0.54;98.09;93866.53;2110982;28;20036;-84
2022/04/17 02:30:06;;;;;;;7.43;5.38;;;;;;;-0.42;98.00;93865.78;2104797;28;20031;-82
2022/04/17 02:31:10;;;;;;;6.18;5.30;;;;;;;-0.50;97.98;93853.50;2112796;27;20419;-82
2022/04/17 02:32:12;;;;;;;6.30;5.50;;;;;;;-0.53;99.24;93865.44;2113460;28;20019;-82
2022/04/17 02:33:13;;;;;;;6.07;5.40;;;;;;;-0.38;97.10;93858.00;2121542;28;20015;-82
2022/04/17 02:34:15;;;;;;;7.78;5.55;;;;;;;-0.37;96.90;93856.91;2113040;28;20497;-82
2022/04/17 02:35:17;;;;;;;6.90;5.55;;;;;;;-0.49;97.12;93851.66;2096588;28;20421;-82
2022/04/17 02:36:19;;;;;;;6.13;5.53;;;;;;;-0.31;97.09;93845.09;2104878;28;20089;-82
2022/04/17 02:37:21;;;;;;;6.07;5.47;;;;;;;-0.26;95.81;93853.53;2112894;28;20039;-82
2022/04/17 02:38:22;;;;;;;15.93;5.82;;;;;;;-0.26;95.67;93842.25;2109134;28;20483;-82
2022/04/17 02:39:23;;;;;;;9.05;5.78;;;;;;;-0.30;95.38;93852.66;2104657;28;20016;-81
2022/04/17 02:40:24;;;;;;;6.97;5.43;;;;;;;-0.22;95.93;93848.38;2104724;28;20043;-82
2022/04/17 02:41:25;;;;;;;7.40;5.38;;;;;;;-0.07;94.96;93849.56;2104554;28;20078;-82
2022/04/17 02:42:26;;;;;;;6.20;5.60;;;;;;;0.03;94.67;93850.97;2097482;28;20595;-82
2022/04/17 02:43:27;;;;;;;7.47;5.85;;;;;;;-0.09;96.96;93852.53;2113030;27;20400;-82
2022/04/17 02:44:28;;;;;;;7.75;5.40;;;;;;;-0.08;97.42;93848.81;2121512;27;20015;-82
2022/04/17 02:45:29;;;;;;;6.85;5.50;;;;;;;-0.12;95.55;93845.31;2113023;28;20027;-82
2022/04/17 02:47:51;;;;;;;6.28;5.25;;;;;;;-0.35;97.12;93841.56;2118314;27;20019;-84
2022/04/17 02:48:52;;;;;;;5.43;4.93;;;;;;;-0.41;97.54;93840.28;2121447;28;20114;-83
2022/04/17 02:49:53;;;;;;;5.50;5.00;;;;;;;-0.24;96.69;93839.28;2103669;28;20025;-82
2022/04/17 02:50:55;;;;;;;6.22;5.20;;;;;;;-0.37;97.74;93844.53;2104574;28;20051;-83
2022/04/17 02:51:56;;;;;;;6.07;5.47;;;;;;;-0.39;97.00;93838.88;2113364;27;20020;-82
2022/04/17 02:52:59;;;;;;;5.85;5.25;;;;;;;-0.43;98.16;93848.50;2112986;28;20468;-82
2022/04/17 02:54:00;;;;;;;5.45;4.95;;;;;;;-0.36;97.22;93837.44;2105214;28;20112;-84
2022/04/17 02:55:02;;;;;;;5.60;5.10;;;;;;;-0.46;98.48;93848.38;2104612;28;20020;-81
2022/04/17 02:56:03;;;;;;;5.63;4.93;;;;;;;-0.58;99.53;93841.25;2103956;28;20030;-81
2022/04/17 02:57:04;;;;;;;7.72;5.47;;;;;;;-0.56;99.63;93849.56;2106914;28;20020;-81
2022/04/17 02:58:05;;;;;;;9.45;5.63;;;;;;;-0.61;100.00;93842.69;2104596;28;20070;-81
2022/04/17 02:59:06;;;;;;;6.47;5.38;;;;;;;-0.57;99.23;93843.56;2112997;28;20019;-81
2022/04/17 03:00:09;;;;;;;7.38;5.35;;;;;;;-0.64;99.87;93845.94;2112917;28;20024;-81
2022/04/17 03:06:28;;;;;;;7.50;4.78;;;;;;;-0.65;99.74;93836.56;2121302;28;20110;-81
2022/04/17 03:07:32;;;;;;;6.38;5.45;;;;;;;-0.79;99.88;93834.25;2104469;28;20036;-82
2022/04/17 03:08:33;;;;;;;5.65;4.82;;;;;;;-0.80;100.00;93842.41;2104912;28;20070;-81
2022/04/17 03:09:33;;;;;;;7.40;5.50;;;;;;;-0.74;100.00;93838.50;2104472;28;20028;-81
2022/04/17 03:10:36;;;;;;;5.15;4.70;;;;;;;-0.66;99.75;93842.91;2096101;28;20116;-81
2022/04/17 03:11:37;;;;;;;6.10;5.50;;;;;;;-0.90;100.00;93843.59;2104776;28;20050;-82
2022/04/17 03:12:38;;;;;;;5.75;5.18;;;;;;;-0.96;100.00;93844.16;2112434;28;20036;-81
2022/04/17 03:13:40;;;;;;;10.82;5.43;;;;;;;-0.72;100.00;93838.94;2112157;28;20031;-82
2022/04/17 03:14:42;;;;;;;5.88;5.28;;;;;;;-0.77;100.00;93839.91;2104205;28;20021;-83
2022/04/17 03:15:43;;;;;;;5.45;4.95;;;;;;;-1.06;100.00;93837.44;2104362;28;20020;-83
2022/04/17 03:16:44;;;;;;;6.07;4.80;;;;;;;-1.11;100.00;93841.03;2095896;28;20047;-82
2022/04/17 03:17:45;;;;;;;5.80;5.20;;;;;;;-1.14;100.00;93840.91;2104277;28;20032;-81
2022/04/17 03:18:46;;;;;;;6.00;5.40;;;;;;;-0.92;100.00;93840.56;2104714;28;20020;-81
2022/04/17 03:19:47;;;;;;;6.45;5.40;;;;;;;-0.98;100.00;93838.44;2104303;28;20028;-82
2022/04/17 03:20:48;;;;;;;8.15;5.30;;;;;;;-1.11;100.00;93840.28;2104402;28;20047;-82
2022/04/17 03:21:49;;;;;;;5.72;5.10;;;;;;;-1.04;100.00;93837.91;2095995;28;20032;-82
2022/04/17 03:22:50;;;;;;;6.10;5.00;;;;;;;-1.00;100.00;93830.91;2095855;28;20031;-82
2022/04/17 03:23:51;;;;;;;7.00;4.88;;;;;;;-1.08;100.00;93837.78;2108477;28;20447;-82
2022/04/17 03:24:52;;;;;;;5.30;4.80;;;;;;;-1.16;100.00;93836.00;2107102;28;20027;-81
2022/04/17 03:25:53;;;;;;;6.35;5.28;;;;;;;-1.13;100.00;93834.59;2114831;28;20023;-81
2022/04/17 03:26:54;;;;;;;7.38;5.40;;;;;;;-1.21;100.00;93836.22;2103807;28;20469;-82
2022/04/17 03:27:57;;;;;;;6.07;5.50;;;;;;;-1.21;100.00;93832.81;2098646;28;20047;-81
2022/04/17 03:28:59;;;;;;;7.20;5.68;;;;;;;-1.12;100.00;93829.00;2091103;28;20546;-82
2022/04/17 03:30:00;;;;;;;6.32;5.43;;;;;;;-1.16;100.00;93825.50;2098951;28;20035;-81
2022/04/17 03:31:01;;;;;;;6.30;5.70;;;;;;;-1.19;100.00;93825.38;2098679;28;20107;-82
2022/04/17 03:32:03;;;;;;;6.60;5.50;;;;;;;-1.20;100.00;93823.84;2106926;28;20026;-82
2022/04/17 03:33:04;;;;;;;5.80;4.88;;;;;;;-1.10;100.00;93826.84;2090506;28;20035;-81
2022/04/17 03:34:08;;;;;;;7.68;5.07;;;;;;;-1.22;100.00;93832.06;2090514;28;20107;-82
2022/04/17 03:35:10;;;;;;;7.00;5.05;;;;;;;-1.21;100.00;93819.72;2099597;28;20673;-81
2022/04/17 03:36:11;;;;;;;5.95;5.20;;;;;;;-1.18;100.00;93822.47;2105821;28;20031;-81
2022/04/17 03:37:14;;;;;;;6.88;5.25;;;;;;;-1.14;100.00;93818.09;2109403;28;20020;-82
2022/04/17 03:38:15;;;;;;;7.53;4.88;;;;;;;-1.18;100.00;93819.06;2104867;28;20024;-82
2022/04/17 03:39:16;;;;;;;7.78;5.22;;;;;;;-1.08;100.00;93821.28;2097847;28;20134;-82
2022/04/17 03:40:17;;;;;;;7.00;5.60;;;;;;;-1.01;100.00;93816.25;2098768;28;20082;-83
2022/04/17 03:41:18;;;;;;;6.95;5.97;;;;;;;-1.03;100.00;93811.31;2107062;28;20063;-81
2022/04/17 03:42:21;;;;;;;6.50;5.32;;;;;;;-0.98;100.00;93806.97;2098501;28;20017;-82
2022/04/17 03:43:23;;;;;;;8.20;5.80;;;;;;;-0.96;100.00;93818.69;2090932;28;20025;-82
2022/04/17 03:44:24;;;;;;;5.60;5.10;;;;;;;-0.90;100.00;93803.50;2098665;28;20390;-81
2022/04/17 03:45:25;;;;;;;6.07;5.32;;;;;;;-0.89;100.00;93811.03;2098387;28;20123;-82
2022/04/17 03:46:26;;;;;;;6.28;5.47;;;;;;;-0.89;99.60;93807.63;2098530;28;20036;-82
2022/04/17 03:47:27;;;;;;;5.65;4.93;;;;;;;-0.65;98.84;93807.66;2098473;28;20020;-82
2022/04/17 03:48:27;;;;;;;5.47;4.78;;;;;;;-0.55;97.39;93806.47;2090229;28;20118;-82
2022/04/17 03:49:31;;;;;;;6.35;4.80;;;;;;;-0.53;96.83;93806.91;2089830;28;20021;-82
2022/04/17 03:50:32;;;;;;;5.20;4.70;;;;;;;-0.60;95.66;93804.81;2090902;28;20103;-82
2022/04/17 03:51:33;;;;;;;6.47;4.90;;;;;;;-0.58;96.25;93805.25;2098393;28;20083;-82
2022/04/17 03:52:45;;;;;;;6.13;4.90;;;;;;;-0.55;99.10;93803.84;2098471;28;20107;-82
2022/04/17 03:53:45;;;;;;;5.57;4.55;;;;;;;-0.56;95.51;93799.69;2099963;28;20415;-82
2022/04/17 03:55:16;;;;;;;5.28;4.63;;;;;;;-0.64;96.11;93801.31;2098580;28;20060;-82
2022/04/17 03:56:17;;;;;;;;;;;;;;;-0.64;96.83;93797.94;2106941;28;20071;-81
2022/04/17 03:57:18;;;;;;;5.00;4.18;;;;;;;-0.69;95.37;93804.16;2098507;28;19977;-82
2022/04/17 03:58:19;;;;;;;6.32;4.53;;;;;;;-0.75;96.32;93802.84;2090278;28;20032;-82
2022/04/17 03:59:20;;;;;;;5.03;4.53;;;;;;;-0.74;99.51;93798.38;2090239;28;20028;-82
2022/04/17 04:00:20;;;;;;;5.07;4.30;;;;;;;-0.61;99.06;93802.53;2106800;28;20036;-82
2022/04/17 04:01:22;;;;;;;6.53;4.82;;;;;;;-0.71;96.03;93795.84;2098013;28;20059;-82
2022/04/17 04:02:24;;;;;;;4.70;4.25;;;;;;;-0.73;96.74;93794.66;2098068;28;20697;-82
2022/04/17 04:03:26;;;;;;;5.93;4.40;;;;;;;-0.56;97.19;93797.84;2107295;27;20059;-81
2022/04/17 04:04:28;;;;;;;5.35;4.85;;;;;;;-0.66;96.66;93806.16;2106709;28;20107;-82
2022/04/17 04:05:29;;;;;;;7.35;4.72;;;;;;;-0.65;94.98;93799.78;2087656;28;20462;-82
2022/04/17 04:06:30;;;;;;;5.03;4.50;;;;;;;-0.81;96.45;93799.66;2089989;28;20028;-82
2022/04/17 04:07:31;;;;;;;5.70;4.82;;;;;;;-0.88;97.75;93799.47;2098533;28;20492;-81
2022/04/17 04:08:31;;;;;;;5.15;4.25;;;;;;;-0.86;96.89;93807.00;2106581;28;20508;-82
2022/04/17 04:09:32;;;;;;;6.05;4.63;;;;;;;-0.93;97.27;93804.13;2098486;28;20021;-82
2022/04/17 04:10:33;;;;;;;6.75;4.50;;;;;;;-0.99;96.58;93797.56;2090141;28;20021;-82
2022/04/17 04:11:34;;;;;;;4.50;4.10;;;;;;;-0.96;96.94;93802.94;2098098;28;20024;-81
2022/04/17 04:12:36;;;;;;;6.05;4.45;;;;;;;-0.99;97.47;93798.34;2098077;28;20041;-82
2022/04/17 04:13:37;;;;;;;7.22;4.57;;;;;;;-1.02;96.72;93806.84;2089538;28;20391;-82
2022/04/17 04:14:38;;;;;;;6.97;4.93;;;;;;;-1.02;98.47;93812.09;2090140;28;20076;-82
2022/04/17 04:15:42;;;;;;;5.80;4.68;;;;;;;-1.03;97.90;93800.06;2090201;28;20422;-82
2022/04/17 04:16:42;;;;;;;7.80;4.57;;;;;;;-1.12;98.17;93800.16;2090640;28;20055;-82
2022/04/17 04:17:44;;;;;;;5.20;4.70;;;;;;;-1.16;97.49;93801.13;2098467;28;20029;-82
2022/04/17 04:18:45;;;;;;;4.97;4.50;;;;;;;-1.15;97.82;93802.66;2090149;28;20029;-82
2022/04/17 04:19:45;;;;;;;6.57;4.72;;;;;;;-1.19;98.13;93799.91;2106718;28;20461;-81
2022/04/17 04:20:47;;;;;;;5.03;4.53;;;;;;;-1.25;97.68;93801.22;2098300;28;20021;-81
2022/04/17 04:21:48;;;;;;;6.60;4.82;;;;;;;-1.36;99.35;93807.94;2089884;28;20029;-81
2022/04/17 04:22:49;;;;;;;5.22;4.72;;;;;;;-1.32;99.38;93808.84;2098106;28;20028;-82
2022/04/17 04:23:49;;;;;;;5.05;4.32;;;;;;;-1.22;98.54;93805.84;2089761;28;20025;-83
2022/04/17 04:24:51;;;;;;;5.18;4.35;;;;;;;-1.32;99.13;93804.38;2090003;28;20029;-82
2022/04/17 04:25:52;;;;;;;5.18;4.32;;;;;;;-1.32;98.79;93809.63;2089183;28;20035;-82
2022/04/17 04:29:35;;;;;;;5.15;4.10;;;;;;;-1.34;99.31;93806.56;2108801;28;20027;-83
2022/04/17 04:30:36;;;;;;;5.15;4.40;;;;;;;-1.37;99.44;93809.03;2097926;28;20144;-82
2022/04/17 04:31:43;;;;;;;4.82;4.35;;;;;;;-1.36;99.92;93802.72;2097889;28;20107;-83
2022/04/17 04:32:56;;;;;;;4.55;4.15;;;;;;;-1.50;100.00;93800.38;2090713;28;20028;-83
2022/04/17 04:33:57;;;;;;;6.22;4.43;;;;;;;-1.48;100.00;93798.22;2092944;28;20103;-82
2022/04/17 04:34:59;;;;;;;6.45;4.85;;;;;;;-1.49;100.00;93809.00;2098142;28;20031;-82
2022/04/17 04:36:02;;;;;;;6.82;4.38;;;;;;;-1.33;100.00;93804.69;2097984;28;20131;-82
2022/04/17 04:37:04;;;;;;;4.80;4.32;;;;;;;-1.36;100.00;93810.56;2098330;28;20035;-82
2022/04/17 04:38:06;;;;;;;4.72;3.88;;;;;;;-1.33;99.94;93810.69;2089430;28;20421;-82
2022/04/17 04:39:07;;;;;;;5.60;5.00;;;;;;;-1.39;100.00;93817.25;2090091;28;20405;-82
2022/04/17 04:40:08;;;;;;;4.32;3.92;;;;;;;-1.33;100.00;93817.81;2098023;28;20051;-82
2022/04/17 04:41:09;;;;;;;5.10;4.40;;;;;;;-1.47;100.00;93818.09;2098160;28;20028;-81
2022/04/17 04:42:10;;;;;;;5.10;4.22;;;;;;;-1.22;100.00;93811.06;2090031;28;20027;-82
2022/04/17 04:43:12;;;;;;;4.93;4.07;;;;;;;-1.27;100.00;93819.16;2090066;28;20020;-81
2022/04/17 04:44:13;;;;;;;4.40;4.00;;;;;;;-1.22;100.00;93818.94;2090090;28;20021;-81
2022/04/17 04:46:34;;;;;;;5.90;4.30;;;;;;;-1.44;100.00;93821.94;2103185;28;20016;-81
2022/04/17 04:47:35;;;;;;;5.38;4.28;;;;;;;-1.35;100.00;93823.38;2098153;28;20029;-81
2022/04/17 04:49:58;;;;;;;6.53;4.28;;;;;;;-1.38;100.00;93823.25;2114307;28;20148;-81
2022/04/17 04:50:58;;;;;;;6.03;4.07;;;;;;;-1.19;99.83;93814.88;2106477;28;20024;-81
2022/04/17 04:52:00;;;;;;;4.68;4.25;;;;;;;-1.22;99.61;93824.19;2098130;28;20024;-81
2022/04/17 04:53:02;;;;;;;5.95;4.05;;;;;;;-1.23;99.42;93821.88;2106824;28;20027;-81
2022/04/17 04:54:03;;;;;;;4.35;3.95;;;;;;;-1.29;99.17;93818.69;2106293;28;20428;-81
2022/04/17 04:55:05;;;;;;;4.97;4.30;;;;;;;-1.15;99.06;93819.16;2106617;28;20064;-81
2022/04/17 04:56:07;;;;;;;4.20;3.55;;;;;;;-1.20;98.73;93821.22;2106257;28;20110;-81
2022/04/17 04:57:08;;;;;;;4.47;3.53;;;;;;;-1.27;99.48;93813.91;2106314;28;20043;-82
2022/04/17 04:58:08;;;;;;;4.57;3.88;;;;;;;-1.24;100.00;93815.88;2098017;28;20441;-82
2022/04/17 04:59:10;;;;;;;4.22;3.75;;;;;;;-1.27;100.00;93813.91;2092535;28;20082;-82
2022/04/17 05:00:11;;;;;;;3.95;3.60;;;;;;;-1.04;98.94;93815.06;2098289;28;20043;-81
2022/04/17 05:01:13;;;;;;;4.60;3.72;;;;;;;-1.18;99.21;93809.34;2097881;28;20027;-81
2022/04/17 05:02:14;;;;;;;4.10;3.42;;;;;;;-1.15;100.00;93818.41;2089414;28;20021;-81
2022/04/17 05:03:14;;;;;;;4.57;3.90;;;;;;;-1.18;99.49;93816.44;2089113;28;20490;-81
2022/04/17 05:04:20;;;;;;;5.18;3.65;;;;;;;-1.34;100.00;93821.53;2088173;28;20032;-81
2022/04/17 05:05:21;;;;;;;4.38;3.97;;;;;;;-1.19;100.00;93823.53;2090172;28;20440;-82
2022/04/17 05:06:22;;;;;;;4.88;4.38;;;;;;;-1.28;100.00;93814.97;2096423;28;20028;-82
2022/04/17 05:07:23;;;;;;;4.65;3.58;;;;;;;-1.35;100.00;93807.66;2104987;28;20031;-82
2022/04/17 05:08:24;;;;;;;5.43;4.05;;;;;;;-1.31;100.00;93820.88;2104829;28;20024;-81